Time;durP1;ratioP1;P1;durP2;ratioP2;P2;SDS_P1;SDS_P2;PMS_P1;PMS_P2;Temp;Humidity;BMP_temperature;BMP_pressure;BME280_temperature;BME280_humidity;BME280_pressure;Samples;Min_cycle;Max_cycle;Signal;HPM_P1;HPM_P2
2022/05/21 00:02:07;;;;;;;4.40;2.97;;;17.70;99.90;;;;;;5032878;28;20108;-49
2022/05/21 00:04:34;;;;;;;4.00;3.10;;;17.80;99.90;;;;;;5032185;28;20037;-50
2022/05/21 00:06:59;;;;;;;5.05;3.17;;;17.30;99.90;;;;;;5033926;28;20035;-50
2022/05/21 00:09:27;;;;;;;4.28;2.90;;;17.20;99.90;;;;;;5032142;28;20033;-50
2022/05/21 00:11:54;;;;;;;4.05;2.83;;;17.40;99.90;;;;;;5033799;28;20037;-50
2022/05/21 00:14:20;;;;;;;5.40;2.88;;;17.60;99.90;;;;;;5033911;28;20029;-50
2022/05/21 00:16:47;;;;;;;4.40;2.70;;;17.70;99.90;;;;;;5033861;28;20034;-49
2022/05/21 00:19:13;;;;;;;6.15;2.85;;;17.60;99.90;;;;;;5033713;28;20029;-49
2022/05/21 00:21:39;;;;;;;6.47;2.80;;;17.30;99.90;;;;;;5033815;28;20036;-49
2022/05/21 00:24:05;;;;;;;5.90;2.70;;;17.10;99.90;;;;;;5033488;28;20107;-50
2022/05/21 00:26:31;;;;;;;3.10;2.30;;;17.20;99.90;;;;;;5031851;28;20033;-49
2022/05/21 00:28:56;;;;;;;3.83;2.60;;;17.00;99.90;;;;;;5033735;28;20421;-50
2022/05/21 00:31:23;;;;;;;7.32;3.65;;;17.00;99.90;;;;;;5033521;28;20022;-49
2022/05/21 00:33:50;;;;;;;7.05;2.60;;;16.90;99.90;;;;;;5033679;28;20037;-50
2022/05/21 00:36:16;;;;;;;8.23;2.70;;;16.90;99.90;;;;;;5033510;28;20500;-50
2022/05/21 00:38:42;;;;;;;4.75;2.88;;;16.80;99.90;;;;;;5033344;28;20037;-49
2022/05/21 00:41:11;;;;;;;8.70;2.95;;;16.30;99.90;;;;;;5033764;28;20033;-49
2022/05/21 00:43:46;;;;;;;7.00;2.63;;;16.20;99.90;;;;;;5033453;28;20040;-50
2022/05/21 00:46:16;;;;;;;3.25;2.60;;;15.90;99.90;;;;;;5048240;28;20413;-50
2022/05/21 00:48:44;;;;;;;4.38;2.60;;;15.90;99.90;;;;;;5033398;28;20025;-50
2022/05/21 00:51:17;;;;;;;6.05;2.65;;;15.80;99.90;;;;;;5033577;28;20037;-49
2022/05/21 00:53:45;;;;;;;3.35;2.50;;;15.70;99.90;;;;;;5033318;28;20045;-49
2022/05/21 00:56:11;;;;;;;3.58;2.45;;;15.50;99.90;;;;;;5033276;28;20025;-50
2022/05/21 01:01:27;;;;;;;4.72;3.03;;;15.50;99.90;;;;;;5033494;28;20075;-50
2022/05/21 01:03:53;;;;;;;4.25;2.33;;;15.60;99.90;;;;;;5033189;28;20163;-50
2022/05/21 01:06:19;;;;;;;5.68;2.50;;;15.70;99.90;;;;;;5033244;28;20112;-50
2022/05/21 01:08:45;;;;;;;4.35;2.28;;;15.70;99.90;;;;;;5034338;28;20017;-50
2022/05/21 01:11:15;;;;;;;3.42;2.70;;;15.90;99.90;;;;;;5037343;28;20033;-49
2022/05/21 01:13:42;;;;;;;3.40;2.33;;;16.10;99.90;;;;;;5037187;28;20026;-50
2022/05/21 01:16:08;;;;;;;2.88;2.05;;;16.20;99.90;;;;;;5037528;28;20029;-50
2022/05/21 01:18:34;;;;;;;6.18;3.35;;;16.20;99.90;;;;;;5037109;28;20041;-50
2022/05/21 01:21:01;;;;;;;4.85;2.53;;;16.10;99.90;;;;;;5037236;28;20030;-50
2022/05/21 01:23:27;;;;;;;3.08;2.58;;;16.10;99.90;;;;;;5036860;28;20095;-50
2022/05/21 01:25:55;;;;;;;4.22;2.28;;;16.00;99.90;;;;;;5037116;28;20029;-49
2022/05/21 01:28:23;;;;;;;3.40;2.58;;;15.80;99.90;;;;;;5037223;28;20087;-49
2022/05/21 01:30:55;;;;;;;4.32;2.50;;;15.60;99.90;;;;;;5037056;28;20033;-49
2022/05/21 01:33:25;;;;;;;3.60;2.65;;;15.60;99.90;;;;;;5036645;28;20394;-49
2022/05/21 01:35:52;;;;;;;3.30;2.83;;;15.50;99.90;;;;;;5036608;28;20029;-50
2022/05/21 01:38:21;;;;;;;4.93;3.53;;;15.50;99.90;;;;;;5051486;28;20048;-50
2022/05/21 01:40:47;;;;;;;4.13;3.00;;;15.70;99.90;;;;;;5036752;28;20024;-49
2022/05/21 01:45:59;;;;;;;7.15;3.00;;;16.00;99.90;;;;;;5037222;28;20044;-50
2022/05/21 01:48:27;;;;;;;6.13;3.03;;;16.30;99.90;;;;;;5036882;28;20532;-50
2022/05/21 01:50:54;;;;;;;7.05;3.28;;;16.50;99.90;;;;;;5034352;28;20116;-50
2022/05/21 01:53:22;;;;;;;11.13;3.83;;;16.60;99.90;;;;;;5034378;28;20072;-50
2022/05/21 01:55:48;;;;;;;10.77;3.70;;;16.70;99.90;;;;;;5034500;28;20501;-49
2022/05/21 01:58:15;;;;;;;4.72;2.90;;;16.80;99.90;;;;;;5034277;28;20116;-50
2022/05/21 02:00:42;;;;;;;4.55;3.08;;;16.90;99.90;;;;;;5017656;28;20120;-50
2022/05/21 02:03:09;;;;;;;6.35;3.35;;;17.00;99.90;;;;;;5034282;28;20051;-50
2022/05/21 02:05:36;;;;;;;5.57;2.75;;;17.10;99.90;;;;;;5034150;28;20030;-50
2022/05/21 02:08:02;;;;;;;4.70;2.75;;;17.00;99.90;;;;;;5034236;28;20432;-50
2022/05/21 02:10:28;;;;;;;6.40;3.08;;;16.90;99.90;;;;;;5034121;28;20045;-50
2022/05/21 02:12:54;;;;;;;5.35;3.17;;;16.80;99.90;;;;;;5017296;28;20049;-50
2022/05/21 02:15:19;;;;;;;5.05;2.88;;;16.60;99.90;;;;;;5034056;28;20104;-50
2022/05/21 02:17:45;;;;;;;9.63;3.20;;;16.40;99.90;;;;;;5033798;28;20033;-50
2022/05/21 02:20:11;;;;;;;5.32;3.03;;;16.30;99.90;;;;;;5033602;28;20035;-49
2022/05/21 02:22:37;;;;;;;4.95;2.85;;;16.20;99.90;;;;;;5035518;28;20066;-50
2022/05/21 02:25:04;;;;;;;5.32;2.78;;;16.00;99.90;;;;;;5033848;28;20056;-50
2022/05/21 02:27:30;;;;;;;5.63;3.30;;;16.00;99.90;;;;;;5035955;28;20049;-49
2022/05/21 02:29:56;;;;;;;4.43;3.20;;;16.00;99.90;;;;;;5034090;28;20064;-49
2022/05/21 02:32:22;;;;;;;4.45;2.95;;;16.20;99.90;;;;;;5035783;28;20022;-50
2022/05/21 02:34:47;;;;;;;4.72;3.25;;;16.10;99.90;;;;;;5035734;28;20033;-50
2022/05/21 02:39:57;;;;;;;19.08;5.50;;;16.30;99.90;;;;;;5035749;28;20080;-49
2022/05/21 02:45:07;;;;;;;9.02;3.42;;;16.60;99.90;;;;;;5035649;28;20120;-50
2022/05/21 02:47:33;;;;;;;6.93;3.25;;;16.70;99.90;;;;;;5033753;28;20029;-49
2022/05/21 02:49:59;;;;;;;6.03;3.20;;;16.80;99.90;;;;;;5035484;28;20029;-50
2022/05/21 02:52:25;;;;;;;8.52;4.05;;;16.90;99.90;;;;;;5033551;28;20033;-49
2022/05/21 02:54:51;;;;;;;7.00;3.55;;;16.90;99.90;;;;;;5035394;28;20033;-50
2022/05/21 02:57:17;;;;;;;8.25;3.00;;;16.90;99.90;;;;;;5050094;28;20046;-49
2022/05/21 02:59:43;;;;;;;8.68;3.85;;;16.90;99.90;;;;;;5035267;28;20515;-49
2022/05/21 03:02:08;;;;;;;4.65;3.05;;;17.00;99.90;;;;;;5035265;28;20025;-50
2022/05/21 03:04:35;;;;;;;8.10;3.60;;;17.00;99.90;;;;;;5035240;28;20116;-50
2022/05/21 03:07:01;;;;;;;8.13;3.55;;;17.00;99.90;;;;;;5035258;28;20432;-50
2022/05/21 03:12:12;;;;;;;5.05;2.97;;;16.70;99.90;;;;;;5035427;28;20044;-50
2022/05/21 03:14:38;;;;;;;5.65;3.33;;;16.40;99.90;;;;;;5035112;28;20025;-49
2022/05/21 03:17:05;;;;;;;7.25;3.20;;;16.30;99.90;;;;;;5034847;28;20033;-49
2022/05/21 03:19:33;;;;;;;4.00;3.28;;;16.20;99.90;;;;;;5034998;28;20057;-50
2022/05/21 03:22:00;;;;;;;5.07;3.33;;;16.10;99.90;;;;;;5034577;28;20033;-49
2022/05/21 03:24:27;;;;;;;10.23;4.28;;;16.10;99.90;;;;;;5034944;28;20067;-49
2022/05/21 03:26:53;;;;;;;43.78;38.00;;;16.10;99.90;;;;;;5049539;28;20034;-50
2022/05/21 03:29:20;;;;;;;36.85;32.78;;;16.00;99.90;;;;;;5034633;28;20381;-50
2022/05/21 03:31:46;;;;;;;10.57;3.83;;;16.00;99.90;;;;;;5034154;28;20025;-50
2022/05/21 03:34:12;;;;;;;8.40;3.70;;;16.20;99.90;;;;;;5034765;28;20057;-49
2022/05/21 03:36:38;;;;;;;8.50;3.50;;;16.30;99.90;;;;;;5034719;28;20029;-50
2022/05/21 03:39:04;;;;;;;7.93;4.45;;;16.50;99.90;;;;;;5034587;28;20660;-49
2022/05/21 03:41:30;;;;;;;11.15;4.38;;;16.60;99.90;;;;;;5034540;28;20029;-49
2022/05/21 03:44:00;;;;;;;17.27;4.07;;;16.70;99.90;;;;;;5034430;28;20030;-50
2022/05/21 03:46:27;;;;;;;4.55;2.90;;;16.70;99.90;;;;;;5034441;28;20495;-50
2022/05/21 03:48:53;;;;;;;7.72;4.20;;;16.80;99.90;;;;;;5034309;28;20025;-50
2022/05/21 03:51:18;;;;;;;8.30;3.80;;;16.80;99.90;;;;;;5034400;28;20104;-49
2022/05/21 03:53:44;;;;;;;9.70;4.35;;;16.80;99.90;;;;;;5032480;28;20038;-50
2022/05/21 03:56:10;;;;;;;5.43;3.65;;;16.90;99.90;;;;;;5034502;28;20025;-50
2022/05/21 03:58:36;;;;;;;7.45;3.90;;;17.00;99.90;;;;;;5034175;28;20083;-50
2022/05/21 04:01:02;;;;;;;7.30;3.75;;;17.00;99.90;;;;;;5034171;28;20384;-49
2022/05/21 04:03:28;;;;;;;11.80;3.58;;;17.00;99.90;;;;;;5034094;28;20029;-50
2022/05/21 04:05:55;;;;;;;6.75;3.38;;;17.00;99.90;;;;;;5033991;28;20546;-50
2022/05/21 04:08:22;;;;;;;11.35;3.67;;;17.00;99.90;;;;;;5034010;28;20033;-50
2022/05/21 04:10:48;;;;;;;7.10;3.35;;;17.00;99.90;;;;;;5034039;28;20022;-50
2022/05/21 04:13:15;;;;;;;6.93;3.75;;;17.00;99.90;;;;;;5032030;28;20034;-50
2022/05/21 04:15:41;;;;;;;5.22;3.22;;;17.10;99.90;;;;;;5048714;28;20120;-50
2022/05/21 04:18:06;;;;;;;5.55;3.60;;;17.10;99.90;;;;;;5032834;28;20545;-50
2022/05/21 04:20:32;;;;;;;6.22;3.58;;;17.10;99.90;;;;;;5033850;28;20030;-50
2022/05/21 04:22:58;;;;;;;9.93;3.60;;;17.20;99.90;;;;;;5031589;28;20099;-50
2022/05/21 04:25:24;;;;;;;7.10;3.30;;;17.20;99.90;;;;;;5033679;28;20037;-50
2022/05/21 04:27:50;;;;;;;6.85;3.35;;;17.30;99.90;;;;;;5048435;28;20040;-50
2022/05/21 04:30:28;;;;;;;6.30;4.00;;;17.50;99.90;;;;;;4998914;28;20413;-50
2022/05/21 04:32:55;;;;;;;6.50;3.58;;;17.60;99.90;;;;;;5033689;28;20456;-50
2022/05/21 04:35:21;;;;;;;10.77;4.47;;;17.80;99.90;;;;;;5033576;28;20026;-50
2022/05/21 04:37:47;;;;;;;6.22;3.25;;;17.90;99.90;;;;;;5033386;28;20044;-49
2022/05/21 04:40:19;;;;;;;6.43;3.10;;;18.00;99.90;;;;;;5033437;28;20026;-50
2022/05/21 04:42:45;;;;;;;6.60;3.70;;;18.10;99.90;;;;;;5033306;28;20104;-50
2022/05/21 04:45:13;;;;;;;7.88;3.55;;;18.20;99.90;;;;;;5048197;28;20037;-50
2022/05/21 04:47:38;;;;;;;10.77;3.50;;;18.10;99.90;;;;;;5033421;28;20429;-50
2022/05/21 04:50:07;;;;;;;18.02;3.80;;;18.00;99.90;;;;;;5033262;28;20064;-50
2022/05/21 04:52:34;;;;;;;9.45;3.72;;;18.00;99.90;;;;;;5031566;28;20041;-50
2022/05/21 04:55:08;;;;;;;7.70;4.10;;;18.10;99.90;;;;;;5033310;28;20065;-50
2022/05/21 04:57:34;;;;;;;6.45;3.47;;;18.20;99.90;;;;;;5031326;28;20068;-50
2022/05/21 05:00:00;;;;;;;5.18;3.90;;;18.20;99.90;;;;;;5048148;28;20481;-50
2022/05/21 05:02:26;;;;;;;5.85;3.53;;;18.30;99.90;;;;;;5027475;28;20108;-49
2022/05/21 05:04:52;;;;;;;8.45;3.80;;;18.20;99.90;;;;;;5030565;28;20098;-51
2022/05/21 05:07:19;;;;;;;5.82;3.38;;;18.30;99.90;;;;;;5022430;28;20045;-50
2022/05/21 05:09:46;;;;;;;6.95;3.58;;;18.40;99.90;;;;;;5017622;28;20482;-50
2022/05/21 05:12:12;;;;;;;6.22;3.85;;;18.60;99.90;;;;;;5032959;28;20071;-49
2022/05/21 05:14:38;;;;;;;8.38;4.07;;;18.80;99.90;;;;;;5033091;28;20072;-49
2022/05/21 05:17:05;;;;;;;9.20;4.22;;;19.00;99.90;;;;;;5022179;28;20508;-50
2022/05/21 05:19:33;;;;;;;7.22;3.92;;;19.20;99.90;;;;;;5033215;28;20033;-50
2022/05/21 05:21:59;;;;;;;6.65;4.38;;;19.40;99.90;;;;;;5033056;28;20040;-49
2022/05/21 05:24:25;;;;;;;6.60;4.40;;;19.60;99.90;;;;;;5032972;28;20057;-49
2022/05/21 05:26:50;;;;;;;7.20;4.70;;;19.70;99.90;;;;;;5032911;28;20044;-49
2022/05/21 05:29:16;;;;;;;6.72;4.13;;;19.90;99.90;;;;;;5032981;28;20037;-50
2022/05/21 05:31:42;;;;;;;8.75;4.40;;;20.00;99.90;;;;;;5028454;28;20116;-50
2022/05/21 05:34:08;;;;;;;6.80;4.45;;;20.10;99.90;;;;;;5024855;28;20026;-50
2022/05/21 05:36:34;;;;;;;10.20;5.20;;;20.20;99.90;;;;;;5030064;28;20393;-50
2022/05/21 05:38:59;;;;;;;12.13;4.40;;;20.10;99.90;;;;;;5023841;28;20103;-50
2022/05/21 05:41:26;;;;;;;6.05;4.75;;;20.20;99.90;;;;;;5032687;28;20029;-49
2022/05/21 05:43:54;;;;;;;9.48;4.28;;;20.40;99.90;;;;;;5028841;28;20084;-50
2022/05/21 05:46:20;;;;;;;8.02;4.55;;;20.60;99.90;;;;;;5030434;28;20033;-50
2022/05/21 05:48:45;;;;;;;8.57;4.53;;;20.90;99.90;;;;;;5030029;28;20040;-49
2022/05/21 05:51:11;;;;;;;8.27;4.68;;;21.20;99.90;;;;;;5032761;28;20044;-50
2022/05/21 05:53:37;;;;;;;9.75;4.57;;;21.40;99.90;;;;;;5028557;28;20041;-50
2022/05/21 05:56:07;;;;;;;27.40;6.45;;;;;;;;;;5014798;28;20520;-50
2022/05/21 06:01:17;;;;;;;6.05;4.10;;;21.90;99.90;;;;;;5029548;28;20060;-50
2022/05/21 06:03:42;;;;;;;9.07;4.18;;;22.10;99.90;;;;;;5047079;28;20497;-50
2022/05/21 06:06:08;;;;;;;9.20;3.90;;;;;;;;;;5035643;28;20132;-50
2022/05/21 06:08:34;;;;;;;10.75;4.38;;;22.70;99.90;;;;;;5025724;28;20075;-50
2022/05/21 06:11:00;;;;;;;14.50;4.45;;;22.90;99.90;;;;;;5026107;28;20061;-49
2022/05/21 06:13:26;;;;;;;7.38;3.97;;;23.10;99.90;;;;;;5026035;28;20022;-50
2022/05/21 06:15:52;;;;;;;11.20;4.40;;;;;;;;;;5033437;28;20045;-50
2022/05/21 06:18:20;;;;;;;7.00;4.45;;;23.70;99.90;;;;;;5036161;28;20041;-49
2022/05/21 06:20:48;;;;;;;7.90;3.90;;;23.80;99.90;;;;;;5034304;28;20034;-50
2022/05/21 06:23:15;;;;;;;14.18;4.25;;;23.90;99.90;;;;;;5021113;28;20077;-50
2022/05/21 06:25:40;;;;;;;7.45;3.90;;;24.10;99.90;;;;;;5026785;28;20029;-50
2022/05/21 06:28:07;;;;;;;7.03;3.60;;;24.40;99.90;;;;;;5022322;28;20041;-50
2022/05/21 06:30:35;;;;;;;4.45;3.53;;;24.50;99.90;;;;;;5028173;28;20127;-50
2022/05/21 06:33:13;;;;;;;7.00;3.67;;;;;;;;;;5021741;28;20051;-50
2022/05/21 06:35:40;;;;;;;5.78;3.80;;;;;;;;;;5036321;28;20496;-50
2022/05/21 06:38:06;;;;;;;7.10;3.50;;;;;;;;;;5035739;28;20037;-50
2022/05/21 06:40:32;;;;;;;8.27;3.70;;;;;;;;;;5035862;28;20030;-51
2022/05/21 06:43:00;;;;;;;8.05;3.70;;;;;;;;;;5026891;28;20053;-53
2022/05/21 06:45:28;;;;;;;5.97;3.47;;;;;;;;;;5015729;28;20021;-50
2022/05/21 06:47:54;;;;;;;11.48;6.50;;;;;;;;;;5021783;28;20134;-50
2022/05/21 06:50:20;;;;;;;6.95;3.85;;;25.40;99.90;;;;;;5015813;28;20034;-50
2022/05/21 06:52:45;;;;;;;6.07;3.28;;;25.50;99.90;;;;;;5023071;28;20120;-51
2022/05/21 06:55:12;;;;;;;12.13;4.00;;;;;;;;;;5026478;28;20512;-50
2022/05/21 06:57:37;;;;;;;8.73;3.67;;;25.80;99.90;;;;;;5024834;28;20046;-50
2022/05/21 07:00:05;;;;;;;7.30;2.97;;;;;;;;;;5014936;28;20045;-47
2022/05/21 07:02:30;;;;;;;7.15;3.00;;;26.00;99.90;;;;;;5028414;28;20069;-50
2022/05/21 07:07:44;;;;;;;5.68;3.67;;;;;;;;;;5034174;28;20037;-46
2022/05/21 07:10:12;;;;;;;7.50;2.90;;;;;;;;;;5034005;28;20517;-49
2022/05/21 07:12:38;;;;;;;14.10;4.57;;;;;;;;;;5037322;28;20505;-47
2022/05/21 07:15:05;;;;;;;7.32;3.35;;;26.90;99.90;;;;;;5050535;28;20444;-48
2022/05/21 07:17:31;;;;;;;5.15;3.20;;;26.90;99.90;;;;;;5002675;28;20080;-48
2022/05/21 07:19:57;;;;;;;7.22;3.45;;;;;;;;;;5053214;28;20134;-48
2022/05/21 07:22:23;;;;;;;9.02;3.75;;;;;;;;;;5053403;28;20072;-48
2022/05/21 07:24:50;;;;;;;7.30;3.53;;;;;;;;;;5057677;28;20044;-47
2022/05/21 07:27:16;;;;;;;7.28;3.40;;;;;;;;;;5048741;28;20029;-48
2022/05/21 07:29:43;;;;;;;7.10;3.40;;;;;;;;;;5053112;28;20121;-48
2022/05/21 07:32:20;;;;;;;6.95;3.28;;;;;;;;;;5053351;28;20047;-47
2022/05/21 07:34:46;;;;;;;5.28;3.20;;;;;;;;;;5070900;28;20090;-48
2022/05/21 07:37:12;;;;;;;4.43;3.10;;;;;;;;;;5036104;28;20029;-47
2022/05/21 07:39:39;;;;;;;8.25;3.13;;;;;;;;;;5056068;28;20354;-47
2022/05/21 07:42:05;;;;;;;5.38;3.00;;;;;;;;;;5051814;28;20033;-48
2022/05/21 07:44:31;;;;;;;4.40;2.90;;;;;;;;;;5053471;28;20039;-48
2022/05/21 07:46:57;;;;;;;6.50;2.97;;;;;;;;;;5043697;28;20047;-47
2022/05/21 07:49:23;;;;;;;5.65;3.33;;;28.70;97.40;;;;;;5031228;28;20037;-48
2022/05/21 07:51:49;;;;;;;7.03;3.13;;;28.90;97.10;;;;;;5033046;28;20040;-48
2022/05/21 07:54:16;;;;;;;8.75;3.83;;;;;;;;;;5029653;28;20033;-48
2022/05/21 07:56:41;;;;;;;7.85;3.03;;;29.30;95.60;;;;;;5037682;28;20037;-47
2022/05/21 07:59:07;;;;;;;4.28;3.35;;;;;;;;;;5044176;28;20032;-47
2022/05/21 08:01:33;;;;;;;8.98;2.72;;;29.60;95.50;;;;;;5034289;28;20079;-47
2022/05/21 08:03:59;;;;;;;6.93;3.20;;;29.50;94.80;;;;;;5035800;28;20025;-46
2022/05/21 08:06:25;;;;;;;5.15;2.83;;;;;;;;;;5037253;28;20440;-47
2022/05/21 08:08:54;;;;;;;8.43;3.22;;;29.80;99.90;;;;;;5034997;28;20515;-46
2022/05/21 08:11:21;;;;;;;6.85;2.60;;;;;;;;;;5032673;28;20029;-47
2022/05/21 08:13:47;;;;;;;6.43;3.22;;;;;;;;;;5035829;28;20127;-47
2022/05/21 08:16:14;;;;;;;6.25;2.85;;;;;;;;;;5038901;28;20039;-47
2022/05/21 08:18:40;;;;;;;4.68;2.95;;;;;;;;;;5036410;28;20052;-47
2022/05/21 08:21:07;;;;;;;7.20;2.90;;;;;;;;;;5037171;28;20041;-47
2022/05/21 08:29:02;;;;;;;5.40;3.03;;;;;;;;;;5034574;28;20072;-47
2022/05/21 08:31:28;;;;;;;5.35;3.15;;;;;;;;;;5030318;28;20093;-47
2022/05/21 08:33:55;;;;;;;9.52;3.67;;;;;;;;;;5033647;28;20156;-47
2022/05/21 08:36:21;;;;;;;4.93;3.40;;;;;;;;;;5035436;28;20397;-46
2022/05/21 08:38:47;;;;;;;5.10;3.35;;;;;;;;;;5039347;28;20033;-47
2022/05/21 08:41:20;;;;;;;6.22;3.30;;;;;;;;;;5038955;28;20116;-47
2022/05/21 08:44:01;;;;;;;10.00;3.13;;;;;;;;;;5033334;28;20052;-47
2022/05/21 08:46:43;;;;;;;8.93;3.30;;;;;;;;;;5032224;28;20119;-47
2022/05/21 08:49:29;;;;;;;4.15;3.28;;;;;;;;;;5040013;28;20029;-47
2022/05/21 08:52:04;;;;;;;7.85;3.80;;;;;;;;;;5032647;28;20038;-48
2022/05/21 08:54:34;;;;;;;3.97;3.10;;;;;;;;;;5035356;28;20033;-52
2022/05/21 08:57:02;;;;;;;5.75;3.28;;;;;;;;;;5032104;28;20029;-52
2022/05/21 08:59:32;;;;;;;6.55;3.40;;;;;;;;;;5032122;28;20091;-49
2022/05/21 09:01:59;;;;;;;7.75;3.72;;;;;;;;;;5030593;28;20466;-49
2022/05/21 09:04:26;;;;;;;11.60;3.22;;;;;;;;;;5032419;28;20036;-48
2022/05/21 09:06:58;;;;;;;7.78;3.03;;;;;;;;;;5035355;28;20032;-48
2022/05/21 09:09:33;;;;;;;4.72;3.10;;;;;;;;;;5046664;28;20060;-47
2022/05/21 09:12:12;;;;;;;4.82;3.10;;;;;;;;;;5030662;28;20045;-51
2022/05/21 09:14:46;;;;;;;10.65;4.25;;;;;;;;;;5029888;28;20029;-52
2022/05/21 09:17:16;;;;;;;6.53;2.92;;;;;;;;;;5032474;28;20029;-54
2022/05/21 09:19:47;;;;;;;9.52;2.95;;;;;;;;;;5035449;28;20159;-46
2022/05/21 09:22:15;;;;;;;7.47;2.88;;;;;;;;;;5034436;28;20029;-49
2022/05/21 09:24:43;;;;;;;3.15;2.85;;;;;;;;;;5031404;28;20925;-44
2022/05/21 09:27:33;;;;;;;4.43;3.00;;;31.60;90.50;;;;;;5031853;28;20029;-48
2022/05/21 09:30:14;;;;;;;7.22;3.05;;;;;;;;;;5029930;28;20393;-50
2022/05/21 09:32:42;;;;;;;3.88;2.67;;;31.60;90.80;;;;;;5033523;28;20025;-47
2022/05/21 09:35:13;;;;;;;10.05;2.75;;;32.00;90.80;;;;;;5031821;28;20072;-50
2022/05/21 09:37:41;;;;;;;9.23;3.80;;;31.40;90.50;;;;;;5037668;28;20049;-45
2022/05/21 09:40:30;;;;;;;8.50;3.70;;;31.60;90.80;;;;;;5035704;28;20044;-46
2022/05/21 09:45:42;;;;;;;4.55;3.17;;;31.40;91.50;;;;;;5038215;28;20087;-50
2022/05/21 09:48:07;;;;;;;4.28;2.97;;;31.30;91.10;;;;;;5033541;28;20036;-47
2022/05/21 09:50:49;;;;;;;5.05;3.10;;;31.50;91.90;;;;;;5031911;28;20474;-52
2022/05/21 09:53:29;;;;;;;4.22;2.72;;;32.20;92.60;;;;;;5033700;28;20026;-51
2022/05/21 09:56:19;;;;;;;5.82;3.20;;;31.80;91.60;;;;;;5031046;28;20034;-50
2022/05/21 09:58:47;;;;;;;6.95;2.72;;;31.40;91.60;;;;;;5030772;28;20408;-54
2022/05/21 10:01:19;;;;;;;6.97;2.90;;;31.70;91.30;;;;;;5034050;28;20014;-50
2022/05/21 10:03:54;;;;;;;4.63;2.70;;;31.60;91.60;;;;;;5034749;28;20037;-48
2022/05/21 10:06:31;;;;;;;6.35;2.92;;;31.90;91.70;;;;;;5051369;28;20488;-46
2022/05/21 10:11:59;;;;;;;7.07;4.05;;;32.90;92.00;;;;;;5032175;28;20087;-45
2022/05/21 10:14:43;;;;;;;5.65;3.70;;;33.30;92.30;;;;;;5033345;28;20068;-53
2022/05/21 10:17:27;;;;;;;12.77;4.40;;;33.20;91.40;;;;;;5047143;28;20041;-51
2022/05/21 10:19:58;;;;;;;4.10;3.47;;;32.80;91.40;;;;;;5027801;28;20083;-50
2022/05/21 10:22:33;;;;;;;6.85;3.50;;;32.90;91.80;;;;;;5031160;28;20025;-51
2022/05/21 10:25:22;;;;;;;8.32;3.40;;;32.60;92.40;;;;;;5035152;28;20469;-51
2022/05/21 10:27:54;;;;;;;3.83;3.10;;;32.60;91.90;;;;;;5031743;28;20036;-50
2022/05/21 10:30:45;;;;;;;5.72;3.20;;;32.30;91.10;;;;;;5037328;28;20059;-52
2022/05/21 10:33:33;;;;;;;4.53;3.30;;;32.10;91.30;;;;;;5033567;28;20033;-51
2022/05/21 10:36:39;;;;;;;5.18;3.38;;;32.10;91.80;;;;;;5037088;28;20076;-51
2022/05/21 10:39:17;;;;;;;4.80;2.83;;;31.90;91.50;;;;;;5034879;28;20095;-50
2022/05/21 10:42:05;;;;;;;6.90;3.20;;;31.90;92.30;;;;;;5038060;28;20099;-51
2022/05/21 10:44:46;;;;;;;4.95;3.13;;;;;;;;;;5033671;28;20055;-51
2022/05/21 10:47:15;;;;;;;5.88;3.20;;;;;;;;;;5034806;28;20477;-50
2022/05/21 10:49:44;;;;;;;6.47;2.63;;;;;;;;;;5041216;28;20030;-51
2022/05/21 10:52:10;;;;;;;5.00;2.90;;;;;;;;;;5038755;28;20032;-50
2022/05/21 10:54:36;;;;;;;6.47;3.10;;;;;;;;;;5043410;28;20416;-50
2022/05/21 10:57:21;;;;;;;5.97;3.28;;;;;;;;;;5036485;28;20477;-50
2022/05/21 10:59:50;;;;;;;6.47;2.95;;;;;;;;;;5033758;28;20152;-50
2022/05/21 11:02:35;;;;;;;7.85;3.20;;;;;;;;;;5038640;28;20039;-50
2022/05/21 11:05:13;;;;;;;6.40;3.17;;;;;;;;;;5048181;28;20075;-50
2022/05/21 11:08:00;;;;;;;9.00;4.32;;;;;;;;;;5041278;28;20026;-50
2022/05/21 11:10:29;;;;;;;5.90;2.95;;;;;;;;;;5052635;28;20051;-50
2022/05/21 11:13:02;;;;;;;7.30;3.00;;;31.40;94.30;;;;;;5040824;28;20083;-50
2022/05/21 11:15:49;;;;;;;4.00;2.90;;;31.60;93.60;;;;;;5038133;28;20038;-51
2022/05/21 11:18:27;;;;;;;6.85;3.60;;;31.90;93.80;;;;;;5031055;28;20021;-50
2022/05/21 11:21:17;;;;;;;5.57;3.15;;;32.30;93.90;;;;;;5036901;28;20381;-51
2022/05/21 11:23:57;;;;;;;16.65;4.60;;;32.00;93.40;;;;;;5035564;28;20136;-51
2022/05/21 11:26:47;;;;;;;6.97;3.40;;;31.90;94.00;;;;;;5034406;28;20029;-50
2022/05/21 11:29:15;;;;;;;8.55;3.22;;;32.20;94.50;;;;;;5038581;28;20110;-50
2022/05/21 11:37:42;;;;;;;7.93;3.38;;;32.90;93.50;;;;;;5034382;28;20091;-50
2022/05/21 11:40:09;;;;;;;5.93;3.03;;;33.30;93.60;;;;;;5032705;28;20034;-50
2022/05/21 11:42:36;;;;;;;5.70;2.97;;;33.50;93.70;;;;;;5033496;28;20107;-50
2022/05/21 11:45:23;;;;;;;5.97;3.30;;;33.50;92.40;;;;;;5030413;28;20033;-50
2022/05/21 11:47:52;;;;;;;9.20;3.10;;;33.30;92.80;;;;;;5034162;28;20073;-51
2022/05/21 11:50:30;;;;;;;4.93;2.95;;;33.20;92.70;;;;;;5040963;28;20060;-51
2022/05/21 11:53:34;;;;;;;5.10;2.75;;;32.70;92.40;;;;;;5033925;28;20025;-51
2022/05/21 11:56:04;;;;;;;6.03;3.30;;;32.20;93.30;;;;;;5055164;28;20175;-50
2022/05/21 11:58:50;;;;;;;4.43;2.38;;;31.80;93.30;;;;;;5052540;28;20033;-50
2022/05/21 12:01:37;;;;;;;5.72;3.20;;;32.00;93.50;;;;;;4979491;28;20434;-51
2022/05/21 12:04:04;;;;;;;7.32;3.28;;;32.00;93.30;;;;;;4975047;28;20043;-48
2022/05/21 12:06:38;;;;;;;7.38;3.58;;;32.00;93.60;;;;;;4973608;28;20532;-45
2022/05/21 12:09:23;;;;;;;7.30;2.60;;;32.30;94.00;;;;;;4977338;28;20041;-47
2022/05/21 12:11:50;;;;;;;5.70;2.58;;;32.50;92.80;;;;;;4968429;28;20050;-47
2022/05/21 12:14:21;;;;;;;8.88;2.70;;;;;;;;;;4958864;28;20066;-46
2022/05/21 12:16:51;;;;;;;6.97;2.33;;;33.60;92.10;;;;;;4971783;28;20034;-47
2022/05/21 12:19:43;;;;;;;3.72;2.67;;;33.90;92.30;;;;;;4976567;28;20049;-52
2022/05/21 12:22:10;;;;;;;8.43;2.75;;;33.70;91.10;;;;;;4917303;29;20068;-50
2022/05/21 12:24:41;;;;;;;4.80;2.53;;;34.60;91.90;;;;;;4914312;29;20296;-47
2022/05/21 12:27:27;;;;;;;9.57;2.97;;;;;;;;;;4898788;29;20040;-47
2022/05/21 12:30:02;;;;;;;5.47;2.67;;;34.70;90.40;;;;;;4912486;29;20036;-47
2022/05/21 12:32:28;;;;;;;3.58;2.20;;;;;;;;;;4894523;29;20036;-47
2022/05/21 12:35:15;;;;;;;7.32;2.40;;;34.90;90.40;;;;;;4864911;29;20041;-47
2022/05/21 12:37:45;;;;;;;3.78;2.42;;;35.10;88.50;;;;;;4901636;29;20134;-47
2022/05/21 12:40:16;;;;;;;5.15;1.77;;;34.90;88.00;;;;;;4935289;29;20039;-47
2022/05/21 12:42:57;;;;;;;4.97;2.03;;;35.00;86.90;;;;;;4911409;29;20125;-49
2022/05/21 12:45:32;;;;;;;;;;;35.00;86.20;;;;;;4933705;29;20039;-45
2022/05/21 12:48:10;;;;;;;5.80;2.25;;;35.00;84.90;;;;;;4929242;29;19906;-53
2022/05/21 12:50:56;;;;;;;3.90;2.08;;;35.20;85.50;;;;;;4931909;29;20095;-53
2022/05/21 12:53:36;;;;;;;5.63;2.00;;;35.20;85.90;;;;;;4929822;29;20048;-51
2022/05/21 12:56:22;;;;;;;3.65;2.22;;;;;;;;;;4921092;29;20074;-49
2022/05/21 12:59:18;;;;;;;17.90;4.13;;;36.30;92.60;;;;;;4947887;28;20056;-48
2022/05/21 13:01:58;;;;;;;2.92;1.55;;;36.40;84.10;;;;;;4990342;28;20026;-57
2022/05/21 13:04:38;;;;;;;5.35;1.77;;;36.20;84.10;;;;;;4990893;28;20549;-54
2022/05/21 13:07:35;;;;;;;3.78;1.90;;;36.20;83.10;;;;;;4992966;28;20034;-53
2022/05/21 13:10:14;;;;;;;5.53;1.77;;;36.10;82.60;;;;;;5012602;28;20132;-50
2022/05/21 13:12:46;;;;;;;3.25;1.63;;;36.00;82.00;;;;;;5034936;28;20041;-48
2022/05/21 13:15:20;;;;;;;3.22;1.60;;;35.80;81.20;;;;;;5026724;28;20037;-55
2022/05/21 13:18:14;;;;;;;4.38;1.50;;;35.60;82.10;;;;;;5033534;28;20060;-49
2022/05/21 13:20:57;;;;;;;4.32;1.67;;;35.50;81.80;;;;;;5031845;28;20479;-52
2022/05/21 13:23:58;;;;;;;3.33;1.45;;;36.00;82.00;;;;;;5030739;28;20502;-50
2022/05/21 13:26:30;;;;;;;8.00;2.50;;;36.40;81.30;;;;;;5049105;28;20366;-50
2022/05/21 13:29:18;;;;;;;5.70;2.15;;;37.00;82.30;;;;;;5044170;28;20053;-55
2022/05/21 13:31:45;;;;;;;3.60;1.52;;;36.60;80.00;;;;;;5046802;28;20052;-50
2022/05/21 13:34:20;;;;;;;5.05;1.73;;;36.30;81.20;;;;;;5046677;28;20040;-48
2022/05/21 13:37:00;;;;;;;9.43;1.92;;;35.80;80.70;;;;;;5050250;28;20028;-44
2022/05/21 13:39:29;;;;;;;4.55;1.90;;;35.80;81.60;;;;;;5031794;28;20103;-48
2022/05/21 13:42:15;;;;;;;5.47;2.80;;;35.70;81.80;;;;;;5046354;28;20025;-49
2022/05/21 13:44:50;;;;;;;4.80;2.15;;;35.50;80.90;;;;;;5050102;28;20459;-51
2022/05/21 13:47:33;;;;;;;5.25;1.92;;;35.50;81.20;;;;;;5012543;28;20028;-51
2022/05/21 13:50:01;;;;;;;9.35;2.85;;;35.90;79.80;;;;;;5049366;28;21691;-48
2022/05/21 13:52:28;;;;;;;4.63;1.60;;;36.30;80.70;;;;;;5047151;28;20029;-49
2022/05/21 13:54:54;;;;;;;4.18;1.88;;;36.40;81.70;;;;;;5053014;28;20128;-51
2022/05/21 13:57:21;;;;;;;7.05;2.03;;;36.30;80.40;;;;;;5048604;28;20076;-47
2022/05/21 13:59:56;;;;;;;8.35;3.13;;;36.30;81.80;;;;;;5051507;28;20033;-52
2022/05/21 14:02:37;;;;;;;5.55;1.73;;;36.30;81.70;;;;;;5049368;28;20041;-48
2022/05/21 14:05:33;;;;;;;3.00;1.80;;;35.80;81.30;;;;;;5033142;28;20492;-51